sensor_id;sensor_type;location;lat;lon;timestamp;temperature;humidity
54788;DHT22;59598;48.112;16.280;2023-02-11T00:00:24;0.30;99.90
54788;DHT22;59598;48.112;16.280;2023-02-11T00:02:55;0.10;1.00
54788;DHT22;59598;48.112;16.280;2023-02-11T00:05:28;0.00;99.90
54788;DHT22;59598;48.112;16.280;2023-02-11T00:07:59;0.00;99.90
54788;DHT22;59598;48.112;16.280;2023-02-11T00:10:31;-0.20;99.90
54788;DHT22;59598;48.112;16.280;2023-02-11T00:13:04;-0.20;99.90
54788;DHT22;59598;48.112;16.280;2023-02-11T00:15:36;-0.30;99.90
54788;DHT22;59598;48.112;16.280;2023-02-11T00:18:09;-0.20;99.90
54788;DHT22;59598;48.112;16.280;2023-02-11T00:20:43;-0.30;99.90
54788;DHT22;59598;48.112;16.280;2023-02-11T00:23:14;-0.20;99.90
54788;DHT22;59598;48.112;16.280;2023-02-11T00:25:45;-0.30;99.90
54788;DHT22;59598;48.112;16.280;2023-02-11T00:28:16;-0.20;99.90
54788;DHT22;59598;48.112;16.280;2023-02-11T00:30:54;-0.10;99.90
54788;DHT22;59598;48.112;16.280;2023-02-11T00:33:28;-0.20;99.90
54788;DHT22;59598;48.112;16.280;2023-02-11T00:36:06;-0.30;99.90
54788;DHT22;59598;48.112;16.280;2023-02-11T00:38:41;-0.40;99.90
54788;DHT22;59598;48.112;16.280;2023-02-11T00:41:19;-0.50;99.90
54788;DHT22;59598;48.112;16.280;2023-02-11T00:43:53;-0.60;99.90
54788;DHT22;59598;48.112;16.280;2023-02-11T00:46:24;-0.70;99.90
54788;DHT22;59598;48.112;16.280;2023-02-11T00:48:58;-0.80;99.90
54788;DHT22;59598;48.112;16.280;2023-02-11T00:51:30;-0.80;99.90
54788;DHT22;59598;48.112;16.280;2023-02-11T00:54:01;-0.80;99.90
54788;DHT22;59598;48.112;16.280;2023-02-11T00:56:35;-0.90;99.90
54788;DHT22;59598;48.112;16.280;2023-02-11T00:59:06;-1.10;99.90
54788;DHT22;59598;48.112;16.280;2023-02-11T01:04:25;-1.10;99.90
54788;DHT22;59598;48.112;16.280;2023-02-11T01:06:56;-1.20;99.90
54788;DHT22;59598;48.112;16.280;2023-02-11T01:09:27;-1.10;99.90
54788;DHT22;59598;48.112;16.280;2023-02-11T01:12:01;-1.20;99.90
54788;DHT22;59598;48.112;16.280;2023-02-11T01:14:35;-1.10;99.90
54788;DHT22;59598;48.112;16.280;2023-02-11T01:17:11;-1.20;99.90
54788;DHT22;59598;48.112;16.280;2023-02-11T01:19:45;-1.10;99.90
54788;DHT22;59598;48.112;16.280;2023-02-11T01:22:21;-1.10;99.90
54788;DHT22;59598;48.112;16.280;2023-02-11T01:24:55;-1.10;99.90
54788;DHT22;59598;48.112;16.280;2023-02-11T01:27:26;-1.20;99.90
54788;DHT22;59598;48.112;16.280;2023-02-11T01:29:57;-1.20;99.90
54788;DHT22;59598;48.112;16.280;2023-02-11T01:32:32;-1.30;99.90
54788;DHT22;59598;48.112;16.280;2023-02-11T01:35:03;-1.30;99.90
54788;DHT22;59598;48.112;16.280;2023-02-11T01:37:37;-1.30;99.90
54788;DHT22;59598;48.112;16.280;2023-02-11T01:40:15;-1.30;99.90
54788;DHT22;59598;48.112;16.280;2023-02-11T01:42:46;-1.40;99.90
54788;DHT22;59598;48.112;16.280;2023-02-11T01:48:24;-1.50;99.90
54788;DHT22;59598;48.112;16.280;2023-02-11T01:51:35;-1.50;99.90
54788;DHT22;59598;48.112;16.280;2023-02-11T01:54:14;-1.50;99.90
54788;DHT22;59598;48.112;16.280;2023-02-11T01:57:06;-1.60;99.90
54788;DHT22;59598;48.112;16.280;2023-02-11T02:00:07;-1.60;99.90
54788;DHT22;59598;48.112;16.280;2023-02-11T02:05:34;-1.70;99.90
54788;DHT22;59598;48.112;16.280;2023-02-11T02:10:50;-1.80;99.90
54788;DHT22;59598;48.112;16.280;2023-02-11T02:13:29;-1.90;99.90
54788;DHT22;59598;48.112;16.280;2023-02-11T02:16:03;-1.90;99.90
54788;DHT22;59598;48.112;16.280;2023-02-11T02:30:48;-1.70;99.90
54788;DHT22;59598;48.112;16.280;2023-02-11T02:36:20;-1.80;99.90
54788;DHT22;59598;48.112;16.280;2023-02-11T02:39:14;-2.00;99.90
54788;DHT22;59598;48.112;16.280;2023-02-11T02:41:48;-2.00;99.90
54788;DHT22;59598;48.112;16.280;2023-02-11T02:44:21;-1.90;99.90
54788;DHT22;59598;48.112;16.280;2023-02-11T02:46:52;-1.90;99.90
54788;DHT22;59598;48.112;16.280;2023-02-11T02:49:27;-1.80;99.90
54788;DHT22;59598;48.112;16.280;2023-02-11T02:52:02;-1.40;99.90
54788;DHT22;59598;48.112;16.280;2023-02-11T02:57:51;-0.90;99.90
54788;DHT22;59598;48.112;16.280;2023-02-11T03:09:03;-1.50;99.90
54788;DHT22;59598;48.112;16.280;2023-02-11T03:11:36;-1.50;99.90
54788;DHT22;59598;48.112;16.280;2023-02-11T03:14:14;-1.60;99.90
54788;DHT22;59598;48.112;16.280;2023-02-11T03:16:48;-1.60;99.90
54788;DHT22;59598;48.112;16.280;2023-02-11T03:19:29;-1.70;99.90
54788;DHT22;59598;48.112;16.280;2023-02-11T03:22:06;-1.70;99.90
54788;DHT22;59598;48.112;16.280;2023-02-11T03:24:45;-1.30;99.90
54788;DHT22;59598;48.112;16.280;2023-02-11T03:33:24;0.30;99.90
54788;DHT22;59598;48.112;16.280;2023-02-11T03:36:01;0.60;99.90
54788;DHT22;59598;48.112;16.280;2023-02-11T03:38:38;0.60;99.90
54788;DHT22;59598;48.112;16.280;2023-02-11T03:41:15;0.70;99.90
54788;DHT22;59598;48.112;16.280;2023-02-11T03:43:51;0.90;99.90
54788;DHT22;59598;48.112;16.280;2023-02-11T03:46:32;0.90;99.90
54788;DHT22;59598;48.112;16.280;2023-02-11T03:49:09;1.00;99.90
54788;DHT22;59598;48.112;16.280;2023-02-11T03:51:43;1.20;99.90
54788;DHT22;59598;48.112;16.280;2023-02-11T03:54:18;1.70;99.90
54788;DHT22;59598;48.112;16.280;2023-02-11T03:56:58;1.80;99.90
54788;DHT22;59598;48.112;16.280;2023-02-11T03:59:30;1.80;99.90
54788;DHT22;59598;48.112;16.280;2023-02-11T04:02:03;2.00;99.90
54788;DHT22;59598;48.112;16.280;2023-02-11T04:04:36;2.00;99.90
54788;DHT22;59598;48.112;16.280;2023-02-11T04:07:11;1.80;99.90
54788;DHT22;59598;48.112;16.280;2023-02-11T04:09:46;1.80;99.90
54788;DHT22;59598;48.112;16.280;2023-02-11T04:12:23;2.00;99.90
54788;DHT22;59598;48.112;16.280;2023-02-11T04:14:56;2.10;99.90
54788;DHT22;59598;48.112;16.280;2023-02-11T04:17:30;2.20;99.90
54788;DHT22;59598;48.112;16.280;2023-02-11T04:20:04;2.10;99.90
54788;DHT22;59598;48.112;16.280;2023-02-11T04:22:38;2.20;99.90
54788;DHT22;59598;48.112;16.280;2023-02-11T04:25:09;2.30;99.90
54788;DHT22;59598;48.112;16.280;2023-02-11T04:27:40;2.30;99.90
54788;DHT22;59598;48.112;16.280;2023-02-11T04:30:12;2.30;99.90
54788;DHT22;59598;48.112;16.280;2023-02-11T04:32:45;2.20;99.90
54788;DHT22;59598;48.112;16.280;2023-02-11T04:35:20;1.90;99.90
54788;DHT22;59598;48.112;16.280;2023-02-11T04:37:51;1.60;99.90
54788;DHT22;59598;48.112;16.280;2023-02-11T04:40:22;1.40;99.90
54788;DHT22;59598;48.112;16.280;2023-02-11T04:42:53;1.10;99.90
54788;DHT22;59598;48.112;16.280;2023-02-11T04:45:24;0.80;99.90
54788;DHT22;59598;48.112;16.280;2023-02-11T04:48:00;0.60;99.90
54788;DHT22;59598;48.112;16.280;2023-02-11T04:50:31;0.40;99.90
54788;DHT22;59598;48.112;16.280;2023-02-11T04:53:05;0.20;99.90
54788;DHT22;59598;48.112;16.280;2023-02-11T04:55:36;0.00;99.90
54788;DHT22;59598;48.112;16.280;2023-02-11T04:58:10;-0.10;99.90
54788;DHT22;59598;48.112;16.280;2023-02-11T05:00:41;-0.20;99.90
54788;DHT22;59598;48.112;16.280;2023-02-11T05:03:15;-0.20;99.90
54788;DHT22;59598;48.112;16.280;2023-02-11T05:05:48;-0.30;99.90
54788;DHT22;59598;48.112;16.280;2023-02-11T05:08:19;-0.20;99.90
54788;DHT22;59598;48.112;16.280;2023-02-11T05:10:53;-0.20;99.90
54788;DHT22;59598;48.112;16.280;2023-02-11T05:13:27;-0.20;99.90
54788;DHT22;59598;48.112;16.280;2023-02-11T05:15:58;-0.30;99.90
54788;DHT22;59598;48.112;16.280;2023-02-11T05:18:37;-0.40;99.90
54788;DHT22;59598;48.112;16.280;2023-02-11T05:21:11;-0.30;99.90
54788;DHT22;59598;48.112;16.280;2023-02-11T05:23:44;-0.30;99.90
54788;DHT22;59598;48.112;16.280;2023-02-11T05:26:16;-0.40;99.90
54788;DHT22;59598;48.112;16.280;2023-02-11T05:28:47;-0.50;99.90
54788;DHT22;59598;48.112;16.280;2023-02-11T05:31:21;-0.50;99.90
54788;DHT22;59598;48.112;16.280;2023-02-11T05:33:54;-0.40;99.90
54788;DHT22;59598;48.112;16.280;2023-02-11T05:36:26;-0.40;99.90
54788;DHT22;59598;48.112;16.280;2023-02-11T05:38:59;-0.10;99.90
54788;DHT22;59598;48.112;16.280;2023-02-11T05:41:30;-0.10;99.90
54788;DHT22;59598;48.112;16.280;2023-02-11T05:44:02;-0.10;99.90
54788;DHT22;59598;48.112;16.280;2023-02-11T05:46:33;0.10;99.90
54788;DHT22;59598;48.112;16.280;2023-02-11T05:49:04;0.10;99.90
54788;DHT22;59598;48.112;16.280;2023-02-11T05:51:36;0.30;99.90
54788;DHT22;59598;48.112;16.280;2023-02-11T05:54:07;0.40;99.90
54788;DHT22;59598;48.112;16.280;2023-02-11T05:56:41;1.10;99.90
54788;DHT22;59598;48.112;16.280;2023-02-11T05:59:13;1.20;99.90
54788;DHT22;59598;48.112;16.280;2023-02-11T06:01:46;1.10;99.90
54788;DHT22;59598;48.112;16.280;2023-02-11T06:04:20;1.40;99.90
54788;DHT22;59598;48.112;16.280;2023-02-11T06:06:54;2.00;99.90
54788;DHT22;59598;48.112;16.280;2023-02-11T06:09:26;2.40;99.90
54788;DHT22;59598;48.112;16.280;2023-02-11T06:11:57;2.60;99.90
54788;DHT22;59598;48.112;16.280;2023-02-11T06:14:28;2.70;99.90
54788;DHT22;59598;48.112;16.280;2023-02-11T06:16:59;2.90;99.90
54788;DHT22;59598;48.112;16.280;2023-02-11T06:19:31;3.00;99.90
54788;DHT22;59598;48.112;16.280;2023-02-11T06:22:08;3.10;99.90
54788;DHT22;59598;48.112;16.280;2023-02-11T06:24:39;3.20;99.90
54788;DHT22;59598;48.112;16.280;2023-02-11T06:27:10;3.30;99.90
54788;DHT22;59598;48.112;16.280;2023-02-11T06:29:41;3.30;99.90
54788;DHT22;59598;48.112;16.280;2023-02-11T06:32:15;3.40;99.90
54788;DHT22;59598;48.112;16.280;2023-02-11T06:34:46;3.50;99.90
54788;DHT22;59598;48.112;16.280;2023-02-11T06:37:20;3.60;99.90
54788;DHT22;59598;48.112;16.280;2023-02-11T06:39:51;3.50;99.90
54788;DHT22;59598;48.112;16.280;2023-02-11T06:42:25;3.60;99.90
54788;DHT22;59598;48.112;16.280;2023-02-11T06:45:09;3.70;99.90
54788;DHT22;59598;48.112;16.280;2023-02-11T06:47:43;3.70;99.90
54788;DHT22;59598;48.112;16.280;2023-02-11T06:50:14;3.70;99.90
54788;DHT22;59598;48.112;16.280;2023-02-11T06:52:49;3.70;99.90
54788;DHT22;59598;48.112;16.280;2023-02-11T06:55:20;3.80;99.90
54788;DHT22;59598;48.112;16.280;2023-02-11T06:57:52;3.80;99.90
54788;DHT22;59598;48.112;16.280;2023-02-11T07:00:23;3.80;99.90
54788;DHT22;59598;48.112;16.280;2023-02-11T07:02:55;3.80;99.90
54788;DHT22;59598;48.112;16.280;2023-02-11T07:05:27;3.90;99.90
54788;DHT22;59598;48.112;16.280;2023-02-11T07:07:58;4.00;99.90
54788;DHT22;59598;48.112;16.280;2023-02-11T07:10:33;4.10;99.90
54788;DHT22;59598;48.112;16.280;2023-02-11T07:13:07;4.30;99.90
54788;DHT22;59598;48.112;16.280;2023-02-11T07:15:38;4.40;99.90
54788;DHT22;59598;48.112;16.280;2023-02-11T07:18:11;4.50;99.90
54788;DHT22;59598;48.112;16.280;2023-02-11T07:20:43;4.50;99.90
54788;DHT22;59598;48.112;16.280;2023-02-11T07:23:17;4.60;99.90
54788;DHT22;59598;48.112;16.280;2023-02-11T07:25:48;4.70;99.90
54788;DHT22;59598;48.112;16.280;2023-02-11T07:28:19;4.80;99.90
54788;DHT22;59598;48.112;16.280;2023-02-11T07:30:52;4.90;99.90
54788;DHT22;59598;48.112;16.280;2023-02-11T07:33:23;5.00;99.90
54788;DHT22;59598;48.112;16.280;2023-02-11T07:35:55;5.10;99.90
54788;DHT22;59598;48.112;16.280;2023-02-11T07:38:33;5.10;99.90
54788;DHT22;59598;48.112;16.280;2023-02-11T07:41:10;5.20;99.90
54788;DHT22;59598;48.112;16.280;2023-02-11T07:43:50;5.20;99.90
54788;DHT22;59598;48.112;16.280;2023-02-11T07:46:24;5.30;99.90
54788;DHT22;59598;48.112;16.280;2023-02-11T07:48:57;5.30;99.90
54788;DHT22;59598;48.112;16.280;2023-02-11T07:51:36;5.40;99.90
54788;DHT22;59598;48.112;16.280;2023-02-11T07:54:10;5.40;99.90
54788;DHT22;59598;48.112;16.280;2023-02-11T07:56:41;5.50;99.90
54788;DHT22;59598;48.112;16.280;2023-02-11T07:59:15;5.50;99.90
54788;DHT22;59598;48.112;16.280;2023-02-11T08:01:46;5.50;99.90
54788;DHT22;59598;48.112;16.280;2023-02-11T08:04:20;5.50;99.90
54788;DHT22;59598;48.112;16.280;2023-02-11T08:06:54;5.50;99.90
54788;DHT22;59598;48.112;16.280;2023-02-11T08:09:27;5.50;99.90
54788;DHT22;59598;48.112;16.280;2023-02-11T08:11:58;5.60;99.90
54788;DHT22;59598;48.112;16.280;2023-02-11T08:14:29;5.60;99.90
54788;DHT22;59598;48.112;16.280;2023-02-11T08:17:03;5.60;99.90
54788;DHT22;59598;48.112;16.280;2023-02-11T08:19:38;5.60;99.90
54788;DHT22;59598;48.112;16.280;2023-02-11T08:22:09;5.60;99.90
54788;DHT22;59598;48.112;16.280;2023-02-11T08:24:40;5.70;99.90
54788;DHT22;59598;48.112;16.280;2023-02-11T08:27:15;5.70;99.90
54788;DHT22;59598;48.112;16.280;2023-02-11T08:29:46;5.70;99.90
54788;DHT22;59598;48.112;16.280;2023-02-11T08:32:22;5.70;99.90
54788;DHT22;59598;48.112;16.280;2023-02-11T08:34:59;5.70;99.90
54788;DHT22;59598;48.112;16.280;2023-02-11T08:37:30;5.70;99.90
54788;DHT22;59598;48.112;16.280;2023-02-11T08:40:03;5.60;99.90
54788;DHT22;59598;48.112;16.280;2023-02-11T08:42:37;5.60;99.90
54788;DHT22;59598;48.112;16.280;2023-02-11T08:45:11;5.50;99.90
54788;DHT22;59598;48.112;16.280;2023-02-11T08:47:45;5.50;99.90
54788;DHT22;59598;48.112;16.280;2023-02-11T08:50:17;5.50;99.90
54788;DHT22;59598;48.112;16.280;2023-02-11T08:52:48;5.60;99.90
54788;DHT22;59598;48.112;16.280;2023-02-11T08:55:19;5.70;99.90
54788;DHT22;59598;48.112;16.280;2023-02-11T08:57:52;5.80;99.90
54788;DHT22;59598;48.112;16.280;2023-02-11T09:00:26;6.00;99.90
54788;DHT22;59598;48.112;16.280;2023-02-11T09:03:00;6.20;99.90
54788;DHT22;59598;48.112;16.280;2023-02-11T09:05:31;6.50;99.90
54788;DHT22;59598;48.112;16.280;2023-02-11T09:08:03;6.60;99.90
54788;DHT22;59598;48.112;16.280;2023-02-11T09:10:37;6.50;99.90
54788;DHT22;59598;48.112;16.280;2023-02-11T09:13:08;6.40;99.90
54788;DHT22;59598;48.112;16.280;2023-02-11T09:15:39;6.40;99.90
54788;DHT22;59598;48.112;16.280;2023-02-11T09:18:14;6.50;99.90
54788;DHT22;59598;48.112;16.280;2023-02-11T09:20:45;6.50;99.90
54788;DHT22;59598;48.112;16.280;2023-02-11T09:23:19;6.50;99.90
54788;DHT22;59598;48.112;16.280;2023-02-11T09:25:50;6.60;99.90
54788;DHT22;59598;48.112;16.280;2023-02-11T09:28:21;6.80;99.90
54788;DHT22;59598;48.112;16.280;2023-02-11T09:30:54;7.00;99.90
54788;DHT22;59598;48.112;16.280;2023-02-11T09:33:25;7.00;99.90
54788;DHT22;59598;48.112;16.280;2023-02-11T09:36:00;7.00;99.90
54788;DHT22;59598;48.112;16.280;2023-02-11T09:38:32;7.20;99.90
54788;DHT22;59598;48.112;16.280;2023-02-11T09:41:03;7.20;99.90
54788;DHT22;59598;48.112;16.280;2023-02-11T09:43:43;7.10;99.90
54788;DHT22;59598;48.112;16.280;2023-02-11T09:46:16;6.90;99.90
54788;DHT22;59598;48.112;16.280;2023-02-11T09:48:53;6.90;99.90
54788;DHT22;59598;48.112;16.280;2023-02-11T09:51:30;6.90;99.90
54788;DHT22;59598;48.112;16.280;2023-02-11T09:54:14;6.90;99.90
54788;DHT22;59598;48.112;16.280;2023-02-11T09:56:46;6.70;99.90
54788;DHT22;59598;48.112;16.280;2023-02-11T09:59:18;6.60;99.90
54788;DHT22;59598;48.112;16.280;2023-02-11T10:05:08;6.50;99.90
54788;DHT22;59598;48.112;16.280;2023-02-11T10:11:06;6.70;99.90
54788;DHT22;59598;48.112;16.280;2023-02-11T10:13:37;6.80;99.90
54788;DHT22;59598;48.112;16.280;2023-02-11T10:22:37;7.10;99.90
54788;DHT22;59598;48.112;16.280;2023-02-11T10:25:45;7.10;99.90
54788;DHT22;59598;48.112;16.280;2023-02-11T10:28:19;7.20;99.90
54788;DHT22;59598;48.112;16.280;2023-02-11T10:31:02;7.40;99.90
54788;DHT22;59598;48.112;16.280;2023-02-11T10:36:52;7.80;99.90
54788;DHT22;59598;48.112;16.280;2023-02-11T10:39:26;8.00;99.90
54788;DHT22;59598;48.112;16.280;2023-02-11T10:42:11;8.10;99.90
54788;DHT22;59598;48.112;16.280;2023-02-11T10:45:02;8.10;99.90
54788;DHT22;59598;48.112;16.280;2023-02-11T10:47:35;8.30;99.90
54788;DHT22;59598;48.112;16.280;2023-02-11T10:53:11;8.40;99.90
54788;DHT22;59598;48.112;16.280;2023-02-11T10:56:00;8.20;99.90
54788;DHT22;59598;48.112;16.280;2023-02-11T11:02:03;8.30;99.90
54788;DHT22;59598;48.112;16.280;2023-02-11T11:04:38;8.50;99.90
54788;DHT22;59598;48.112;16.280;2023-02-11T11:07:17;8.40;99.90
54788;DHT22;59598;48.112;16.280;2023-02-11T11:12:45;8.50;99.90
54788;DHT22;59598;48.112;16.280;2023-02-11T11:15:25;8.50;99.90
54788;DHT22;59598;48.112;16.280;2023-02-11T11:21:01;9.20;99.90
54788;DHT22;59598;48.112;16.280;2023-02-11T11:23:34;9.00;99.90
54788;DHT22;59598;48.112;16.280;2023-02-11T11:28:55;9.10;99.90
54788;DHT22;59598;48.112;16.280;2023-02-11T11:31:36;8.80;99.90
54788;DHT22;59598;48.112;16.280;2023-02-11T11:34:21;8.80;99.90
54788;DHT22;59598;48.112;16.280;2023-02-11T11:36:54;8.80;99.90
54788;DHT22;59598;48.112;16.280;2023-02-11T11:39:35;9.00;99.90
54788;DHT22;59598;48.112;16.280;2023-02-11T11:42:31;9.00;99.90
54788;DHT22;59598;48.112;16.280;2023-02-11T11:47:52;9.20;99.90
54788;DHT22;59598;48.112;16.280;2023-02-11T11:56:20;9.60;99.90
54788;DHT22;59598;48.112;16.280;2023-02-11T11:58:53;9.50;99.90
54788;DHT22;59598;48.112;16.280;2023-02-11T12:12:53;9.00;99.90
54788;DHT22;59598;48.112;16.280;2023-02-11T12:21:18;8.70;99.90
54788;DHT22;59598;48.112;16.280;2023-02-11T12:23:55;8.50;99.90
54788;DHT22;59598;48.112;16.280;2023-02-11T12:26:48;8.50;99.90
54788;DHT22;59598;48.112;16.280;2023-02-11T12:29:30;8.80;99.90
54788;DHT22;59598;48.112;16.280;2023-02-11T12:43:41;9.00;99.90
54788;DHT22;59598;48.112;16.280;2023-02-11T12:57:23;9.30;99.90
54788;DHT22;59598;48.112;16.280;2023-02-11T13:05:37;9.20;99.90
54788;DHT22;59598;48.112;16.280;2023-02-11T13:08:16;8.80;99.90
54788;DHT22;59598;48.112;16.280;2023-02-11T13:10:59;8.90;99.90
54788;DHT22;59598;48.112;16.280;2023-02-11T13:14:03;9.80;99.90
54788;DHT22;59598;48.112;16.280;2023-02-11T13:16:40;10.80;99.90
54788;DHT22;59598;48.112;16.280;2023-02-11T13:19:31;10.30;99.90
54788;DHT22;59598;48.112;16.280;2023-02-11T13:24:52;9.20;99.90
54788;DHT22;59598;48.112;16.280;2023-02-11T13:30:32;8.90;99.90
54788;DHT22;59598;48.112;16.280;2023-02-11T13:33:32;8.90;99.90
54788;DHT22;59598;48.112;16.280;2023-02-11T13:38:39;8.60;99.90
54788;DHT22;59598;48.112;16.280;2023-02-11T13:44:03;8.50;99.90
54788;DHT22;59598;48.112;16.280;2023-02-11T13:46:54;8.40;99.90
54788;DHT22;59598;48.112;16.280;2023-02-11T13:49:38;8.40;99.90
54788;DHT22;59598;48.112;16.280;2023-02-11T13:55:02;8.40;99.90
54788;DHT22;59598;48.112;16.280;2023-02-11T13:57:39;8.10;99.90
54788;DHT22;59598;48.112;16.280;2023-02-11T14:09:05;8.40;99.90
54788;DHT22;59598;48.112;16.280;2023-02-11T14:14:18;8.70;99.90
54788;DHT22;59598;48.112;16.280;2023-02-11T14:19:37;8.80;99.90
54788;DHT22;59598;48.112;16.280;2023-02-11T14:22:13;8.50;99.90
54788;DHT22;59598;48.112;16.280;2023-02-11T14:24:51;8.20;99.90
54788;DHT22;59598;48.112;16.280;2023-02-11T14:27:41;8.00;99.90
54788;DHT22;59598;48.112;16.280;2023-02-11T14:30:38;7.80;99.90
54788;DHT22;59598;48.112;16.280;2023-02-11T14:41:29;7.70;99.90
54788;DHT22;59598;48.112;16.280;2023-02-11T14:44:11;7.60;99.90
54788;DHT22;59598;48.112;16.280;2023-02-11T14:46:49;7.60;99.90
54788;DHT22;59598;48.112;16.280;2023-02-11T14:49:26;7.50;99.90
54788;DHT22;59598;48.112;16.280;2023-02-11T14:52:31;7.40;99.90
54788;DHT22;59598;48.112;16.280;2023-02-11T14:55:20;7.40;99.90
54788;DHT22;59598;48.112;16.280;2023-02-11T14:58:16;7.30;99.90
54788;DHT22;59598;48.112;16.280;2023-02-11T15:01:33;7.20;99.90
54788;DHT22;59598;48.112;16.280;2023-02-11T15:03:48;7.20;99.90
54788;DHT22;59598;48.112;16.280;2023-02-11T15:06:24;7.20;99.90
54788;DHT22;59598;48.112;16.280;2023-02-11T15:09:13;7.10;99.90
54788;DHT22;59598;48.112;16.280;2023-02-11T15:11:50;7.10;99.90
54788;DHT22;59598;48.112;16.280;2023-02-11T15:14:33;7.10;99.90
54788;DHT22;59598;48.112;16.280;2023-02-11T15:17:08;7.10;99.90
54788;DHT22;59598;48.112;16.280;2023-02-11T15:19:44;7.00;99.90
54788;DHT22;59598;48.112;16.280;2023-02-11T15:22:22;7.00;99.90
54788;DHT22;59598;48.112;16.280;2023-02-11T15:27:45;6.90;99.90
54788;DHT22;59598;48.112;16.280;2023-02-11T15:35:36;6.80;99.90
54788;DHT22;59598;48.112;16.280;2023-02-11T15:38:12;6.80;99.90
54788;DHT22;59598;48.112;16.280;2023-02-11T15:41:02;6.80;99.90
54788;DHT22;59598;48.112;16.280;2023-02-11T15:43:48;6.70;99.90
54788;DHT22;59598;48.112;16.280;2023-02-11T15:46:22;6.70;99.90
54788;DHT22;59598;48.112;16.280;2023-02-11T15:48:56;6.70;99.90
54788;DHT22;59598;48.112;16.280;2023-02-11T15:51:35;6.70;99.90
54788;DHT22;59598;48.112;16.280;2023-02-11T15:54:16;6.60;99.90
54788;DHT22;59598;48.112;16.280;2023-02-11T15:56:51;6.50;99.90
54788;DHT22;59598;48.112;16.280;2023-02-11T15:59:29;6.40;99.90
54788;DHT22;59598;48.112;16.280;2023-02-11T16:02:23;6.30;99.90
54788;DHT22;59598;48.112;16.280;2023-02-11T16:05:03;6.20;99.90
54788;DHT22;59598;48.112;16.280;2023-02-11T16:07:47;6.10;99.90
54788;DHT22;59598;48.112;16.280;2023-02-11T16:10:32;6.00;99.90
54788;DHT22;59598;48.112;16.280;2023-02-11T16:15:53;5.90;99.90
54788;DHT22;59598;48.112;16.280;2023-02-11T16:21:05;5.90;99.90
54788;DHT22;59598;48.112;16.280;2023-02-11T16:23:39;5.90;99.90
54788;DHT22;59598;48.112;16.280;2023-02-11T16:26:31;5.90;99.90
54788;DHT22;59598;48.112;16.280;2023-02-11T16:29:15;6.00;99.90
54788;DHT22;59598;48.112;16.280;2023-02-11T16:31:47;6.10;99.90
54788;DHT22;59598;48.112;16.280;2023-02-11T16:34:20;6.10;99.90
54788;DHT22;59598;48.112;16.280;2023-02-11T16:36:52;6.10;99.90
54788;DHT22;59598;48.112;16.280;2023-02-11T16:39:28;6.20;99.90
54788;DHT22;59598;48.112;16.280;2023-02-11T16:42:03;6.20;99.90
54788;DHT22;59598;48.112;16.280;2023-02-11T16:44:37;6.20;99.90
54788;DHT22;59598;48.112;16.280;2023-02-11T16:47:19;6.30;99.90
54788;DHT22;59598;48.112;16.280;2023-02-11T16:49:54;6.30;99.90
54788;DHT22;59598;48.112;16.280;2023-02-11T16:52:26;6.20;99.90
54788;DHT22;59598;48.112;16.280;2023-02-11T16:55:00;6.20;99.90
54788;DHT22;59598;48.112;16.280;2023-02-11T16:57:34;6.20;99.90
54788;DHT22;59598;48.112;16.280;2023-02-11T17:00:16;6.20;99.90
54788;DHT22;59598;48.112;16.280;2023-02-11T17:02:47;6.20;99.90
54788;DHT22;59598;48.112;16.280;2023-02-11T17:05:21;6.20;99.90
54788;DHT22;59598;48.112;16.280;2023-02-11T17:07:55;6.10;99.90
54788;DHT22;59598;48.112;16.280;2023-02-11T17:10:31;6.10;99.90
54788;DHT22;59598;48.112;16.280;2023-02-11T17:13:02;6.10;99.90
54788;DHT22;59598;48.112;16.280;2023-02-11T17:15:35;6.10;99.90
54788;DHT22;59598;48.112;16.280;2023-02-11T17:18:06;6.00;99.90
54788;DHT22;59598;48.112;16.280;2023-02-11T17:20:37;5.90;99.90
54788;DHT22;59598;48.112;16.280;2023-02-11T17:23:11;5.90;99.90
54788;DHT22;59598;48.112;16.280;2023-02-11T17:25:42;5.90;99.90
54788;DHT22;59598;48.112;16.280;2023-02-11T17:28:16;5.80;99.90
54788;DHT22;59598;48.112;16.280;2023-02-11T17:30:51;5.80;99.90
54788;DHT22;59598;48.112;16.280;2023-02-11T17:33:25;5.80;99.90
54788;DHT22;59598;48.112;16.280;2023-02-11T17:35:56;5.80;99.90
54788;DHT22;59598;48.112;16.280;2023-02-11T17:38:27;5.80;99.90
54788;DHT22;59598;48.112;16.280;2023-02-11T17:41:02;5.80;99.90
54788;DHT22;59598;48.112;16.280;2023-02-11T17:43:36;5.80;99.90
54788;DHT22;59598;48.112;16.280;2023-02-11T17:46:08;5.80;99.90
54788;DHT22;59598;48.112;16.280;2023-02-11T17:48:39;5.90;99.90
54788;DHT22;59598;48.112;16.280;2023-02-11T17:51:31;5.90;99.90
54788;DHT22;59598;48.112;16.280;2023-02-11T17:54:10;5.90;99.90
54788;DHT22;59598;48.112;16.280;2023-02-11T17:56:42;5.90;99.90
54788;DHT22;59598;48.112;16.280;2023-02-11T17:59:13;5.90;99.90
54788;DHT22;59598;48.112;16.280;2023-02-11T18:01:45;5.80;99.90
54788;DHT22;59598;48.112;16.280;2023-02-11T18:04:19;5.90;99.90
54788;DHT22;59598;48.112;16.280;2023-02-11T18:06:52;5.80;99.90
54788;DHT22;59598;48.112;16.280;2023-02-11T18:09:27;5.80;99.90
54788;DHT22;59598;48.112;16.280;2023-02-11T18:11:58;5.80;99.90
54788;DHT22;59598;48.112;16.280;2023-02-11T18:14:32;5.90;99.90
54788;DHT22;59598;48.112;16.280;2023-02-11T18:17:03;6.00;99.90
54788;DHT22;59598;48.112;16.280;2023-02-11T18:19:35;6.00;99.90
54788;DHT22;59598;48.112;16.280;2023-02-11T18:22:07;6.10;99.90
54788;DHT22;59598;48.112;16.280;2023-02-11T18:24:42;6.20;99.90
54788;DHT22;59598;48.112;16.280;2023-02-11T18:27:14;6.20;99.90
54788;DHT22;59598;48.112;16.280;2023-02-11T18:29:50;6.20;99.90
54788;DHT22;59598;48.112;16.280;2023-02-11T18:32:24;6.20;99.90
54788;DHT22;59598;48.112;16.280;2023-02-11T18:34:55;6.20;99.90
54788;DHT22;59598;48.112;16.280;2023-02-11T18:37:29;6.20;99.90
54788;DHT22;59598;48.112;16.280;2023-02-11T18:40:00;6.10;99.90
54788;DHT22;59598;48.112;16.280;2023-02-11T18:42:34;6.10;99.90
54788;DHT22;59598;48.112;16.280;2023-02-11T18:45:06;6.10;99.90
54788;DHT22;59598;48.112;16.280;2023-02-11T18:47:42;6.20;99.90
54788;DHT22;59598;48.112;16.280;2023-02-11T18:50:13;6.20;99.90
54788;DHT22;59598;48.112;16.280;2023-02-11T18:52:48;6.20;99.90
54788;DHT22;59598;48.112;16.280;2023-02-11T18:55:21;6.20;99.90
54788;DHT22;59598;48.112;16.280;2023-02-11T18:57:55;6.30;99.90
54788;DHT22;59598;48.112;16.280;2023-02-11T19:00:33;6.20;99.90
54788;DHT22;59598;48.112;16.280;2023-02-11T19:03:06;6.30;99.90
54788;DHT22;59598;48.112;16.280;2023-02-11T19:05:42;6.20;99.90
54788;DHT22;59598;48.112;16.280;2023-02-11T19:08:14;6.20;99.90
54788;DHT22;59598;48.112;16.280;2023-02-11T19:10:46;6.20;99.90
54788;DHT22;59598;48.112;16.280;2023-02-11T19:13:19;6.30;99.90
54788;DHT22;59598;48.112;16.280;2023-02-11T19:15:50;6.30;99.90
54788;DHT22;59598;48.112;16.280;2023-02-11T19:18:21;6.30;99.90